Time;durP1;ratioP1;P1;durP2;ratioP2;P2;SDS_P1;SDS_P2;PMS_P1;PMS_P2;Temp;Humidity;BMP_temperature;BMP_pressure;BME280_temperature;BME280_humidity;BME280_pressure;Samples;Min_cycle;Max_cycle;Signal;HPM_P1;HPM_P2
2021/12/24 00:01:57;;;;;;;;;;;19.70;57.00;;;;;;5022451;28;1298;-67
2021/12/24 00:04:22;;;;;;;;;;;19.60;57.00;;;;;;5032955;28;1380;-67
2021/12/24 00:06:48;;;;;;;;;;;19.60;57.00;;;;;;5035277;28;1906;-67
2021/12/24 00:09:21;;;;;;;;;;;19.60;57.00;;;;;;5035048;28;1365;-67
2021/12/24 00:11:46;;;;;;;;;;;19.60;57.10;;;;;;5035188;28;1095;-68
2021/12/24 00:14:12;;;;;;;;;;;19.60;57.10;;;;;;5034466;28;1361;-66
2021/12/24 00:16:42;;;;;;;;;;;19.60;57.10;;;;;;5034792;28;1118;-67
2021/12/24 00:35:29;;;;;;;;;;;19.60;57.20;;;;;;5034193;28;1378;-67
2021/12/24 00:37:54;;;;;;;;;;;19.60;57.20;;;;;;5034407;28;1309;-66
2021/12/24 00:40:20;;;;;;;;;;;19.60;57.20;;;;;;5033475;28;1056;-67
2021/12/24 00:42:49;;;;;;;;;;;19.50;57.20;;;;;;5032621;28;1315;-66
2021/12/24 00:45:16;;;;;;;;;;;19.60;57.20;;;;;;5034011;28;1910;-67
2021/12/24 00:47:41;;;;;;;;;;;19.50;57.30;;;;;;5032913;28;1347;-67
2021/12/24 00:50:10;;;;;;;;;;;19.50;57.30;;;;;;5034272;28;1071;-67
2021/12/24 00:55:21;;;;;;;;;;;19.50;57.30;;;;;;5033947;28;1071;-67
2021/12/24 00:57:50;;;;;;;;;;;19.50;57.30;;;;;;5034089;28;1091;-67
2021/12/24 01:00:17;;;;;;;;;;;19.50;57.30;;;;;;5032623;28;1393;-66
2021/12/24 01:02:43;;;;;;;;;;;19.50;57.30;;;;;;5020336;28;1166;-67
2021/12/24 01:05:08;;;;;;;;;;;19.50;57.40;;;;;;5032472;28;1902;-67
2021/12/24 01:07:34;;;;;;;;;;;19.50;57.40;;;;;;5032602;28;1294;-67
2021/12/24 01:09:59;;;;;;;;;;;19.50;57.40;;;;;;5033728;28;1194;-67
2021/12/24 01:12:25;;;;;;;;;;;19.50;57.40;;;;;;5032748;28;1293;-67
2021/12/24 01:14:51;;;;;;;;;;;19.50;57.40;;;;;;5033046;28;1142;-66
2021/12/24 01:19:48;;;;;;;;;;;19.50;57.40;;;;;;5032490;28;1268;-66
2021/12/24 01:25:08;;;;;;;;;;;19.50;57.40;;;;;;5033183;28;1952;-67
2021/12/24 01:27:56;;;;;;;;;;;19.40;57.40;;;;;;5033685;28;1028;-67
2021/12/24 01:38:31;;;;;;;;;;;19.50;57.50;;;;;;5032400;28;1393;-68
2021/12/24 01:43:22;;;;;;;;;;;19.40;57.50;;;;;;5032728;28;1378;-67
2021/12/24 01:45:48;;;;;;;;;;;19.40;57.50;;;;;;5031912;28;1967;-67
2021/12/24 01:48:14;;;;;;;;;;;19.40;57.50;;;;;;5033193;28;1458;-67
2021/12/24 01:50:42;;;;;;;;;;;19.40;57.50;;;;;;5033183;28;1079;-68
2021/12/24 01:53:07;;;;;;;;;;;19.40;57.50;;;;;;5033016;28;1341;-69
2021/12/24 01:55:33;;;;;;;;;;;19.40;57.50;;;;;;5031998;28;1124;-67
2021/12/24 01:57:58;;;;;;;;;;;19.40;57.50;;;;;;5031675;28;1135;-68
2021/12/24 02:00:25;;;;;;;;;;;19.40;57.50;;;;;;5031789;28;1402;-68
2021/12/24 02:02:50;;;;;;;;;;;19.40;57.50;;;;;;5032665;28;1284;-67
2021/12/24 02:05:16;;;;;;;;;;;19.40;57.50;;;;;;5032777;28;1970;-68
2021/12/24 02:07:42;;;;;;;;;;;19.40;57.40;;;;;;5031732;28;1132;-68
2021/12/24 02:10:08;;;;;;;;;;;19.40;57.40;;;;;;5031278;28;1367;-67
2021/12/24 02:12:35;;;;;;;;;;;19.40;57.40;;;;;;5031512;28;1367;-68
2021/12/24 02:15:02;;;;;;;;;;;19.40;57.40;;;;;;5032498;28;1372;-68
2021/12/24 02:28:53;;;;;;;;;;;19.40;57.40;;;;;;5032658;28;1270;-68
2021/12/24 02:31:00;;;;;;;;;;;19.50;57.40;;;;;;5029222;28;1582;-68
2021/12/24 02:33:25;;;;;;;;;;;19.40;57.40;;;;;;5032458;28;1294;-68
2021/12/24 02:35:51;;;;;;;;;;;19.50;57.50;;;;;;5032587;28;1059;-68
2021/12/24 02:38:16;;;;;;;;;;;19.50;57.40;;;;;;5031483;28;1358;-68
2021/12/24 02:40:42;;;;;;;;;;;19.50;57.40;;;;;;5032486;28;1380;-67
2021/12/24 02:43:12;;;;;;;;;;;19.50;57.40;;;;;;5032106;28;1365;-69
2021/12/24 02:45:40;;;;;;;;;;;19.40;57.40;;;;;;5030968;28;1910;-69
2021/12/24 02:56:00;;;;;;;;;;;19.40;57.40;;;;;;5035963;28;1310;-68
2021/12/24 02:58:26;;;;;;;;;;;19.50;57.50;;;;;;5035005;28;1358;-68
2021/12/24 03:00:51;;;;;;;;;;;19.40;57.40;;;;;;5036068;28;1244;-68
2021/12/24 03:03:17;;;;;;;;;;;19.40;57.40;;;;;;5034722;28;1350;-68
2021/12/24 03:05:42;;;;;;;;;;;19.40;57.40;;;;;;5036171;28;1899;-68
2021/12/24 03:08:08;;;;;;;;;;;19.40;57.40;;;;;;5036220;28;1074;-68
2021/12/24 03:10:35;;;;;;;;;;;19.40;57.40;;;;;;5036101;28;1673;-67
2021/12/24 03:13:01;;;;;;;;;;;19.40;57.40;;;;;;5035637;28;1797;-68
2021/12/24 03:15:26;;;;;;;;;;;19.40;57.40;;;;;;5034842;28;1333;-69
2021/12/24 03:17:55;;;;;;;;;;;19.40;57.40;;;;;;5035897;28;1380;-67
2021/12/24 03:20:21;;;;;;;;;;;19.40;57.40;;;;;;5035938;28;1318;-68
2021/12/24 03:23:03;;;;;;;;;;;19.40;57.50;;;;;;5035705;28;1333;-68
2021/12/24 03:25:28;;;;;;;;;;;19.40;57.50;;;;;;5034664;28;1909;-68
2021/12/24 03:27:53;;;;;;;;;;;19.40;57.50;;;;;;5035620;28;1275;-67
2021/12/24 03:30:19;;;;;;;;;;;19.40;57.50;;;;;;5035744;28;1174;-68
2021/12/24 03:32:44;;;;;;;;;;;19.40;57.50;;;;;;5035335;28;1267;-68
2021/12/24 03:35:10;;;;;;;;;;;19.40;57.50;;;;;;5035269;28;1331;-67
2021/12/24 03:37:35;;;;;;;;;;;19.40;57.50;;;;;;5034292;28;1092;-67
2021/12/24 03:40:01;;;;;;;;;;;19.40;57.50;;;;;;5035547;28;1254;-66
2021/12/24 03:42:26;;;;;;;;;;;19.40;57.50;;;;;;5034586;28;1290;-65
2021/12/24 03:45:06;;;;;;;;;;;19.40;57.50;;;;;;5034898;28;1894;-67
2021/12/24 03:47:36;;;;;;;;;;;19.40;57.60;;;;;;5035549;28;1264;-67
2021/12/24 03:50:07;;;;;;;;;;;19.40;57.60;;;;;;5035046;28;1326;-68
2021/12/24 03:54:58;;;;;;;;;;;19.40;57.60;;;;;;5033652;28;1296;-67
2021/12/24 03:57:25;;;;;;;;;;;19.40;57.60;;;;;;5034163;28;1283;-66
2021/12/24 03:59:50;;;;;;;;;;;19.30;57.60;;;;;;5033873;28;1355;-67
2021/12/24 04:02:15;;;;;;;;;;;19.30;57.60;;;;;;5035160;28;1213;-67
2021/12/24 04:04:41;;;;;;;;;;;19.40;57.60;;;;;;5034545;28;1902;-67
2021/12/24 04:07:06;;;;;;;;;;;19.40;57.70;;;;;;5035037;28;1266;-69
2021/12/24 04:09:33;;;;;;;;;;;19.40;57.60;;;;;;5035029;28;1131;-67
2021/12/24 04:11:58;;;;;;;;;;;19.30;57.60;;;;;;5033705;28;1182;-68
2021/12/24 04:14:24;;;;;;;;;;;19.40;57.60;;;;;;5034996;28;1206;-67
2021/12/24 04:16:49;;;;;;;;;;;19.40;57.60;;;;;;5034926;28;1087;-68
2021/12/24 04:19:37;;;;;;;;;;;19.40;57.60;;;;;;5034842;28;1924;-67
2021/12/24 04:24:54;;;;;;;;;;;19.40;57.70;;;;;;5034363;28;1902;-67
2021/12/24 04:27:23;;;;;;;;;;;19.40;57.70;;;;;;5034777;28;1023;-68
2021/12/24 04:29:49;;;;;;;;;;;19.30;57.60;;;;;;5034396;28;1079;-67
2021/12/24 04:32:25;;;;;;;;;;;19.30;57.60;;;;;;5034741;28;1275;-67
2021/12/24 04:34:53;;;;;;;;;;;19.40;57.70;;;;;;5034142;28;1286;-69
2021/12/24 04:39:56;;;;;;;;;;;19.40;57.70;;;;;;5034338;28;1043;-67
2021/12/24 05:01:53;;;;;;;;;;;19.30;57.80;;;;;;5043139;28;1143;-68
2021/12/24 05:04:26;;;;;;;;;;;19.30;57.80;;;;;;5049585;28;1722;-68
2021/12/24 05:06:57;;;;;;;;;;;19.30;57.80;;;;;;5053403;28;1971;-67
2021/12/24 05:09:25;;;;;;;;;;;19.30;57.80;;;;;;5051794;28;1410;-69
2021/12/24 05:11:50;;;;;;;;;;;19.30;57.80;;;;;;5052358;28;1127;-68
2021/12/24 05:14:15;;;;;;;;;;;19.30;57.70;;;;;;5052835;28;1320;-68
2021/12/24 05:16:48;;;;;;;;;;;19.30;57.70;;;;;;5052616;28;1253;-68
2021/12/24 05:21:58;;;;;;;;;;;19.40;57.50;;;;;;5046059;28;1042;-68
2021/12/24 05:24:24;;;;;;;;;;;19.50;57.50;;;;;;5046004;28;1259;-69
2021/12/24 05:26:51;;;;;;;;;;;19.50;57.40;;;;;;5045180;28;1898;-70
2021/12/24 05:29:17;;;;;;;;;;;19.60;57.30;;;;;;5043719;28;1277;-69
2021/12/24 05:31:42;;;;;;;;;;;19.60;57.20;;;;;;5046327;28;1207;-69
2021/12/24 05:34:08;;;;;;;;;;;19.60;57.10;;;;;;5047745;28;1230;-69
2021/12/24 05:36:33;;;;;;;;;;;19.60;57.00;;;;;;5046231;28;1263;-69
2021/12/24 05:38:59;;;;;;;;;;;19.70;56.90;;;;;;5043828;28;1297;-68
2021/12/24 05:41:25;;;;;;;;;;;19.70;56.80;;;;;;5045336;28;1163;-69
2021/12/24 05:43:50;;;;;;;;;;;19.70;56.80;;;;;;5045385;28;1215;-68
2021/12/24 05:46:16;;;;;;;;;;;19.70;56.70;;;;;;5046852;28;1906;-69
2021/12/24 05:48:41;;;;;;;;;;;19.70;56.60;;;;;;5045893;28;1250;-69
2021/12/24 05:51:07;;;;;;;;;;;19.80;56.60;;;;;;5044951;28;1227;-68
2021/12/24 05:53:32;;;;;;;;;;;19.80;56.60;;;;;;5044758;28;1207;-68
2021/12/24 05:55:57;;;;;;;;;;;19.80;56.50;;;;;;5046183;28;1207;-68
2021/12/24 05:58:23;;;;;;;;;;;19.80;56.50;;;;;;5052596;28;1360;-68
2021/12/24 06:00:48;;;;;;;;;;;19.80;56.50;;;;;;5049462;28;1291;-68
2021/12/24 06:03:14;;;;;;;;;;;19.80;56.50;;;;;;5039670;28;1286;-68
2021/12/24 06:05:40;;;;;;;;;;;19.80;56.50;;;;;;5052252;28;1913;-67
2021/12/24 06:08:05;;;;;;;;;;;19.80;56.40;;;;;;5052316;28;1268;-68
2021/12/24 06:10:31;;;;;;;;;;;19.80;56.50;;;;;;5051443;28;1293;-68
2021/12/24 06:12:57;;;;;;;;;;;19.80;56.40;;;;;;5051686;28;1279;-68
2021/12/24 06:15:24;;;;;;;;;;;19.80;56.40;;;;;;5051571;28;1358;-68
2021/12/24 06:17:53;;;;;;;;;;;19.80;56.40;;;;;;5052379;28;1353;-68
2021/12/24 06:20:18;;;;;;;;;;;19.80;56.40;;;;;;5052391;28;1293;-67
2021/12/24 06:22:44;;;;;;;;;;;19.80;56.40;;;;;;5052221;28;1331;-68
2021/12/24 06:25:09;;;;;;;;;;;19.80;56.40;;;;;;5052444;28;1902;-68
2021/12/24 06:27:35;;;;;;;;;;;19.80;56.40;;;;;;5051469;28;1308;-67
2021/12/24 06:30:00;;;;;;;;;;;19.80;56.50;;;;;;5053726;28;1405;-67
2021/12/24 06:32:26;;;;;;;;;;;19.80;56.40;;;;;;5056328;28;1296;-67
2021/12/24 06:34:51;;;;;;;;;;;19.80;56.40;;;;;;5055331;28;1261;-68
2021/12/24 06:37:17;;;;;;;;;;;19.80;56.50;;;;;;5056516;28;1316;-68
2021/12/24 06:39:42;;;;;;;;;;;19.80;56.50;;;;;;5037296;28;1883;-69
2021/12/24 06:42:08;;;;;;;;;;;19.80;56.50;;;;;;5042744;28;1883;-68
2021/12/24 06:44:33;;;;;;;;;;;19.80;56.50;;;;;;5048705;28;1277;-67
2021/12/24 06:46:59;;;;;;;;;;;19.80;56.50;;;;;;5046822;28;1939;-68
2021/12/24 06:49:24;;;;;;;;;;;19.80;56.50;;;;;;5044033;28;1209;-67
2021/12/24 06:51:50;;;;;;;;;;;19.80;56.50;;;;;;5051269;28;1086;-67
2021/12/24 06:54:17;;;;;;;;;;;19.80;56.50;;;;;;5053883;28;1043;-67
2021/12/24 06:56:43;;;;;;;;;;;19.80;56.50;;;;;;5054139;28;1225;-67
2021/12/24 06:59:08;;;;;;;;;;;19.80;56.50;;;;;;5054765;28;1273;-67
2021/12/24 07:01:34;;;;;;;;;;;19.80;56.50;;;;;;5044681;28;1289;-67
2021/12/24 07:03:59;;;;;;;;;;;19.80;56.50;;;;;;5049428;28;1320;-67
2021/12/24 07:06:25;;;;;;;;;;;19.80;56.50;;;;;;5054461;28;1910;-67
2021/12/24 07:08:51;;;;;;;;;;;19.80;56.50;;;;;;5054832;28;1379;-67
2021/12/24 07:11:16;;;;;;;;;;;19.80;56.50;;;;;;5054672;28;1138;-67
2021/12/24 07:13:41;;;;;;;;;;;19.80;56.50;;;;;;5054143;28;1387;-68
2021/12/24 07:16:07;;;;;;;;;;;19.80;56.50;;;;;;5055022;28;1059;-68
2021/12/24 07:18:32;;;;;;;;;;;19.80;56.50;;;;;;5053876;28;1343;-68
2021/12/24 07:20:58;;;;;;;;;;;19.80;56.50;;;;;;5053171;28;1384;-68
2021/12/24 07:23:23;;;;;;;;;;;19.80;56.50;;;;;;5051885;28;1294;-67
2021/12/24 07:25:49;;;;;;;;;;;19.80;56.50;;;;;;5054382;28;1958;-67
2021/12/24 07:28:14;;;;;;;;;;;19.80;56.50;;;;;;5053576;28;1294;-68
2021/12/24 07:30:39;;;;;;;;;;;19.80;56.50;;;;;;5055107;28;1320;-68
2021/12/24 07:33:05;;;;;;;;;;;19.80;56.50;;;;;;5053459;28;1338;-66
2021/12/24 07:35:30;;;;;;;;;;;19.80;56.50;;;;;;5054162;28;1423;-68
2021/12/24 07:37:56;;;;;;;;;;;19.80;56.50;;;;;;5053904;28;1284;-68
2021/12/24 07:40:25;;;;;;;;;;;19.80;56.60;;;;;;5053428;28;1280;-66
2021/12/24 07:42:50;;;;;;;;;;;19.80;56.50;;;;;;5048893;28;1696;-67
2021/12/24 07:45:16;;;;;;;;;;;19.80;56.50;;;;;;5053702;28;1890;-67
2021/12/24 07:47:43;;;;;;;;;;;19.80;56.60;;;;;;5052598;28;1317;-67
2021/12/24 07:51:58;;;;;;;;;;;19.80;56.60;;;;;;5052391;28;1067;-67
2021/12/24 07:53:02;;;;;;;;;;;19.80;56.60;;;;;;5052786;28;1298;-67
2021/12/24 07:55:28;;;;;;;;;;;19.80;56.60;;;;;;5054635;28;1274;-66
2021/12/24 07:57:53;;;;;;;;;;;19.80;56.60;;;;;;5053487;28;1202;-67
2021/12/24 08:00:22;;;;;;;;;;;19.80;56.60;;;;;;5054383;28;1375;-66
2021/12/24 08:02:48;;;;;;;;;;;19.80;56.60;;;;;;5040140;28;1157;-66
2021/12/24 08:05:13;;;;;;;;;;;19.80;57.20;;;;;;5053234;28;1973;-65
2021/12/24 08:07:39;;;;;;;;;;;19.80;56.60;;;;;;5054679;28;1303;-68
2021/12/24 08:10:04;;;;;;;;;;;19.70;56.60;;;;;;5052904;28;1179;-67
2021/12/24 08:12:30;;;;;;;;;;;19.80;56.60;;;;;;5053052;28;1337;-65
2021/12/24 08:14:55;;;;;;;;;;;19.80;56.60;;;;;;5053338;28;1071;-65
2021/12/24 08:17:20;;;;;;;;;;;19.80;56.60;;;;;;5054505;28;1314;-66
2021/12/24 08:19:46;;;;;;;;;;;19.90;56.50;;;;;;5053999;28;1345;-65
2021/12/24 08:22:11;;;;;;;;;;;19.90;56.40;;;;;;5054207;28;1380;-66
2021/12/24 08:24:37;;;;;;;;;;;20.00;56.30;;;;;;5053700;28;1270;-64
2021/12/24 08:27:03;;;;;;;;;;;20.10;56.20;;;;;;5054131;28;1983;-66
2021/12/24 08:29:28;;;;;;;;;;;20.30;56.10;;;;;;5054086;28;1290;-67
2021/12/24 08:31:53;;;;;;;;;;;20.30;55.90;;;;;;5053741;28;1491;-66
2021/12/24 08:34:19;;;;;;;;;;;20.50;55.70;;;;;;5053636;28;1266;-66
2021/12/24 08:36:45;;;;;;;;;;;20.60;55.50;;;;;;5052331;28;1326;-66
2021/12/24 08:39:10;;;;;;;;;;;20.70;55.20;;;;;;5054153;28;1341;-66
2021/12/24 08:41:36;;;;;;;;;;;20.80;55.00;;;;;;5054026;28;1264;-65
2021/12/24 08:44:01;;;;;;;;;;;20.80;54.80;;;;;;5053896;28;1336;-65
2021/12/24 08:46:27;;;;;;;;;;;21.00;54.60;;;;;;5054182;28;1902;-66
2021/12/24 08:48:52;;;;;;;;;;;21.00;54.40;;;;;;5053935;28;1244;-65
2021/12/24 08:51:18;;;;;;;;;;;21.10;54.30;;;;;;5053141;28;1114;-66
2021/12/24 08:53:43;;;;;;;;;;;21.10;54.10;;;;;;5052892;28;1376;-66
2021/12/24 08:56:09;;;;;;;;;;;21.20;53.90;;;;;;5053190;28;1357;-66
2021/12/24 08:58:34;;;;;;;;;;;21.20;53.80;;;;;;5053183;28;1363;-66
2021/12/24 09:00:59;;;;;;;;;;;21.30;53.70;;;;;;5053175;28;1309;-66
2021/12/24 09:03:25;;;;;;;;;;;21.40;53.60;;;;;;5051621;28;1048;-66
2021/12/24 09:05:50;;;;;;;;;;;21.40;53.50;;;;;;5052108;28;1969;-65
2021/12/24 09:08:16;;;;;;;;;;;21.40;53.40;;;;;;5053178;28;1378;-66
2021/12/24 09:10:41;;;;;;;;;;;21.50;53.40;;;;;;5053531;28;1376;-66
2021/12/24 09:13:07;;;;;;;;;;;21.50;53.30;;;;;;5051761;28;1456;-65
2021/12/24 09:15:32;;;;;;;;;;;21.60;53.30;;;;;;5053734;28;1357;-66
2021/12/24 09:17:58;;;;;;;;;;;21.60;53.20;;;;;;5053704;28;1317;-66
2021/12/24 09:20:28;;;;;;;;;;;21.60;53.20;;;;;;5053444;28;1302;-67
2021/12/24 09:22:55;;;;;;;;;;;21.60;53.10;;;;;;5052779;28;1340;-66
2021/12/24 09:25:22;;;;;;;;;;;21.60;53.10;;;;;;5053119;28;1910;-67
2021/12/24 09:27:47;;;;;;;;;;;21.60;53.10;;;;;;5051602;28;1376;-67
2021/12/24 09:30:13;;;;;;;;;;;21.70;53.10;;;;;;5053111;28;1368;-67
2021/12/24 09:32:38;;;;;;;;;;;21.70;53.10;;;;;;5051322;28;1290;-67
2021/12/24 09:35:04;;;;;;;;;;;21.70;53.20;;;;;;5052442;28;1314;-65
2021/12/24 09:37:29;;;;;;;;;;;21.70;53.20;;;;;;5051222;28;1318;-66
2021/12/24 09:39:55;;;;;;;;;;;21.70;53.20;;;;;;5052476;28;1375;-66
2021/12/24 09:42:20;;;;;;;;;;;21.70;53.20;;;;;;5052998;28;1421;-65
2021/12/24 09:44:46;;;;;;;;;;;21.70;53.30;;;;;;5050647;28;1945;-66
2021/12/24 09:47:11;;;;;;;;;;;21.70;53.20;;;;;;5052358;28;1281;-65
2021/12/24 09:49:37;;;;;;;;;;;21.70;53.20;;;;;;5052348;28;1218;-66
2021/12/24 09:52:02;;;;;;;;;;;21.70;53.30;;;;;;5052598;28;1340;-64
2021/12/24 09:54:28;;;;;;;;;;;21.60;53.30;;;;;;5050660;28;1092;-66
2021/12/24 09:56:54;;;;;;;;;;;21.60;53.20;;;;;;5051783;28;1443;-66
2021/12/24 09:59:19;;;;;;;;;;;21.60;53.30;;;;;;5052316;28;1373;-67
2021/12/24 10:01:51;;;;;;;;;;;21.60;53.30;;;;;;5050834;28;1166;-67
2021/12/24 10:04:17;;;;;;;;;;;21.50;53.30;;;;;;5051433;28;1379;-68
2021/12/24 10:06:50;;;;;;;;;;;21.60;53.40;;;;;;5052118;28;1906;-67
2021/12/24 10:09:16;;;;;;;;;;;21.50;53.40;;;;;;5052515;28;1295;-67
2021/12/24 10:11:46;;;;;;;;;;;21.50;53.50;;;;;;5052207;28;1086;-67
2021/12/24 10:14:12;;;;;;;;;;;21.50;53.50;;;;;;5051842;28;1286;-67
2021/12/24 10:16:40;;;;;;;;;;;21.50;53.60;;;;;;5052376;28;1321;-67
2021/12/24 10:19:06;;;;;;;;;;;21.40;53.60;;;;;;5051657;28;1327;-67
2021/12/24 10:21:32;;;;;;;;;;;21.40;53.70;;;;;;5052442;28;1281;-67
2021/12/24 10:24:02;;;;;;;;;;;21.40;53.70;;;;;;5051783;28;1083;-67
2021/12/24 10:26:32;;;;;;;;;;;21.40;53.80;;;;;;5052389;28;1957;-67
2021/12/24 10:28:58;;;;;;;;;;;21.30;53.80;;;;;;5051737;28;1325;-68
2021/12/24 10:31:25;;;;;;;;;;;21.30;53.90;;;;;;5052136;28;1232;-66
2021/12/24 10:34:03;;;;;;;;;;;21.30;53.90;;;;;;5050330;28;1383;-67
2021/12/24 10:36:29;;;;;;;;;;;21.30;54.00;;;;;;5051736;28;1356;-66
2021/12/24 10:38:54;;;;;;;;;;;21.30;54.00;;;;;;5051130;28;1345;-66
2021/12/24 10:41:20;;;;;;;;;;;21.20;54.10;;;;;;5042253;28;1689;-68
2021/12/24 10:43:45;;;;;;;;;;;21.20;54.10;;;;;;5047195;28;1388;-69
2021/12/24 10:46:11;;;;;;;;;;;21.20;54.10;;;;;;5048371;28;1910;-68
2021/12/24 10:48:37;;;;;;;;;;;21.20;54.20;;;;;;5040547;28;1360;-69
2021/12/24 10:51:08;;;;;;;;;;;21.20;54.30;;;;;;5049994;28;1396;-69
2021/12/24 10:53:53;;;;;;;;;;;21.20;54.30;;;;;;5048908;28;1048;-70
2021/12/24 10:56:25;;;;;;;;;;;21.10;54.30;;;;;;5048725;28;1550;-70
2021/12/24 10:58:50;;;;;;;;;;;21.10;54.40;;;;;;5050918;28;1316;-69
2021/12/24 11:01:16;;;;;;;;;;;21.10;54.40;;;;;;5049160;28;1295;-69
2021/12/24 11:03:43;;;;;;;;;;;21.10;54.40;;;;;;5049673;28;1115;-69
2021/12/24 11:06:08;;;;;;;;;;;21.10;54.50;;;;;;5049504;28;1914;-68
2021/12/24 11:08:34;;;;;;;;;;;21.10;54.50;;;;;;5049050;28;1369;-69
2021/12/24 11:11:00;;;;;;;;;;;21.10;54.60;;;;;;5049681;28;1311;-68
2021/12/24 11:13:44;;;;;;;;;;;21.00;54.60;;;;;;5044353;28;1922;-68
2021/12/24 11:16:10;;;;;;;;;;;21.10;54.60;;;;;;5046264;28;1164;-69
2021/12/24 11:18:38;;;;;;;;;;;21.00;54.70;;;;;;5043535;28;1669;-67
2021/12/24 11:21:09;;;;;;;;;;;21.00;54.70;;;;;;5053212;28;1338;-69
2021/12/24 11:23:35;;;;;;;;;;;21.00;54.70;;;;;;5051908;28;1465;-69
2021/12/24 11:26:25;;;;;;;;;;;21.00;54.70;;;;;;5053934;28;1914;-69
2021/12/24 11:28:50;;;;;;;;;;;21.10;54.70;;;;;;5046132;28;1331;-69
2021/12/24 11:31:19;;;;;;;;;;;21.10;54.70;;;;;;5053848;28;1242;-69
2021/12/24 11:33:45;;;;;;;;;;;21.10;54.60;;;;;;5068945;22;3693;-67
2021/12/24 11:36:11;;;;;;;;;;;21.10;54.60;;;;;;5017219;28;1767;-68
2021/12/24 11:38:38;;;;;;;;;;;21.10;54.50;;;;;;5048742;28;2013;-68
2021/12/24 11:41:04;;;;;;;;;;;21.20;54.50;;;;;;5040134;28;1273;-68
2021/12/24 11:43:31;;;;;;;;;;;21.10;54.40;;;;;;5027155;28;1942;-69
2021/12/24 11:45:57;;;;;;;;;;;21.20;54.40;;;;;;5034093;28;1981;-69
2021/12/24 11:48:23;;;;;;;;;;;21.20;54.40;;;;;;5031730;28;1757;-67
2021/12/24 11:50:48;;;;;;;;;;;21.20;54.30;;;;;;5032651;28;1270;-69
2021/12/24 11:53:15;;;;;;;;;;;21.20;54.30;;;;;;5043607;28;1719;-67
2021/12/24 11:55:41;;;;;;;;;;;21.20;54.30;;;;;;5030270;28;2290;-70
2021/12/24 11:58:08;;;;;;;;;;;21.20;54.20;;;;;;5024308;28;1415;-68
2021/12/24 12:00:35;;;;;;;;;;;21.20;54.20;;;;;;5019372;28;1305;-67
2021/12/24 12:03:00;;;;;;;;;;;21.20;54.20;;;;;;5033801;28;1669;-68
2021/12/24 12:05:32;;;;;;;;;;;21.20;54.20;;;;;;5033031;28;1894;-67
2021/12/24 12:08:16;;;;;;;;;;;21.20;54.20;;;;;;5013887;28;1599;-68
2021/12/24 12:10:48;;;;;;;;;;;21.20;54.20;;;;;;5022401;28;1687;-68
2021/12/24 12:13:32;;;;;;;;;;;21.20;54.30;;;;;;5013150;28;1605;-67
2021/12/24 12:15:58;;;;;;;;;;;21.20;54.30;;;;;;5021042;28;1261;-67
2021/12/24 12:18:28;;;;;;;;;;;21.20;54.30;;;;;;5033549;28;1651;-68
2021/12/24 12:20:57;;;;;;;;;;;21.20;54.30;;;;;;5033340;28;1380;-68
2021/12/24 12:23:48;;;;;;;;;;;21.20;54.40;;;;;;5032445;28;1286;-67
2021/12/24 12:26:33;;;;;;;;;;;21.10;54.40;;;;;;5034628;28;2255;-68
2021/12/24 12:29:17;;;;;;;;;;;21.10;54.40;;;;;;5033946;28;1381;-68
2021/12/24 12:31:42;;;;;;;;;;;21.10;54.50;;;;;;5034458;28;1448;-68
2021/12/24 12:34:26;;;;;;;;;;;21.10;54.50;;;;;;5033334;28;1618;-69
2021/12/24 12:36:52;;;;;;;;;;;21.10;54.50;;;;;;5034316;28;1506;-68
2021/12/24 12:39:27;;;;;;;;;;;21.10;54.60;;;;;;5033843;28;1683;-67
2021/12/24 12:41:52;;;;;;;;;;;21.10;54.70;;;;;;5033943;28;1850;-69
2021/12/24 12:44:19;;;;;;;;;;;21.10;54.70;;;;;;5032987;28;1651;-68
2021/12/24 12:46:46;;;;;;;;;;;21.10;54.70;;;;;;5033714;28;1906;-69
2021/12/24 12:49:16;;;;;;;;;;;21.00;54.70;;;;;;5033580;28;1131;-68
2021/12/24 12:51:52;;;;;;;;;;;21.00;54.70;;;;;;5033647;28;1300;-68
2021/12/24 12:54:36;;;;;;;;;;;21.00;54.70;;;;;;5033239;28;1352;-68
2021/12/24 12:57:12;;;;;;;;;;;21.00;54.80;;;;;;5032465;28;1667;-68
2021/12/24 12:59:37;;;;;;;;;;;21.00;54.80;;;;;;5032814;28;1403;-69
2021/12/24 13:02:03;;;;;;;;;;;21.00;54.80;;;;;;5030965;28;1239;-68
2021/12/24 13:04:28;;;;;;;;;;;21.00;54.80;;;;;;5026124;28;1357;-69
2021/12/24 13:06:55;;;;;;;;;;;21.00;54.80;;;;;;5012300;28;1899;-68
2021/12/24 13:09:21;;;;;;;;;;;21.00;54.80;;;;;;5022408;28;1409;-68
2021/12/24 13:11:47;;;;;;;;;;;21.00;55.10;;;;;;5019986;28;1538;-68
2021/12/24 13:14:13;;;;;;;;;;;21.00;55.10;;;;;;5012450;28;1425;-68
2021/12/24 13:16:46;;;;;;;;;;;21.00;55.00;;;;;;5018914;28;1276;-69
2021/12/24 13:24:37;;;;;;;;;;;21.00;55.10;;;;;;5013003;28;1606;-68
2021/12/24 13:27:02;;;;;;;;;;;21.00;55.00;;;;;;5012844;28;1949;-69
2021/12/24 13:29:28;;;;;;;;;;;21.00;55.00;;;;;;5013310;28;1131;-69
2021/12/24 13:31:53;;;;;;;;;;;21.00;55.00;;;;;;5025855;28;2139;-69
2021/12/24 13:34:19;;;;;;;;;;;21.00;55.00;;;;;;5021140;28;1272;-68
2021/12/24 13:36:44;;;;;;;;;;;21.00;55.00;;;;;;5014114;28;1248;-68
2021/12/24 13:39:10;;;;;;;;;;;21.00;55.00;;;;;;5011535;28;1152;-68
2021/12/24 13:41:36;;;;;;;;;;;20.90;55.00;;;;;;5012616;28;1111;-68
2021/12/24 13:44:01;;;;;;;;;;;21.00;55.10;;;;;;5012134;28;1344;-68
2021/12/24 13:46:32;;;;;;;;;;;21.00;55.00;;;;;;5012570;28;1965;-68
2021/12/24 13:54:33;;;;;;;;;;;20.90;55.70;;;;;;5011319;28;1336;-68
2021/12/24 13:56:58;;;;;;;;;;;20.90;55.70;;;;;;5024935;28;1736;-67
2021/12/24 13:59:24;;;;;;;;;;;20.90;55.10;;;;;;5027776;28;1131;-67
2021/12/24 14:01:49;;;;;;;;;;;20.90;55.10;;;;;;5032309;28;1252;-67
2021/12/24 14:04:16;;;;;;;;;;;20.90;55.20;;;;;;5027985;28;1338;-66
2021/12/24 14:06:42;;;;;;;;;;;20.80;55.20;;;;;;5011501;28;1953;-67
2021/12/24 14:09:11;;;;;;;;;;;20.80;55.20;;;;;;5021264;28;1371;-66
2021/12/24 14:11:37;;;;;;;;;;;20.80;55.20;;;;;;5020946;28;1092;-66
2021/12/24 14:14:07;;;;;;;;;;;20.80;55.20;;;;;;5011734;28;1365;-67
2021/12/24 14:16:43;;;;;;;;;;;20.80;55.20;;;;;;5011704;28;1064;-66
2021/12/24 14:19:13;;;;;;;;;;;20.80;55.20;;;;;;5012961;28;1219;-66
2021/12/24 14:21:45;;;;;;;;;;;20.80;55.20;;;;;;5023039;28;1076;-68
2021/12/24 14:24:12;;;;;;;;;;;20.80;55.20;;;;;;5017166;28;1313;-67
2021/12/24 14:26:45;;;;;;;;;;;20.80;55.30;;;;;;5030167;28;1902;-69
2021/12/24 14:29:10;;;;;;;;;;;20.80;55.30;;;;;;5030987;28;1371;-70
2021/12/24 14:31:49;;;;;;;;;;;20.80;55.30;;;;;;5029160;28;1315;-69
2021/12/24 14:34:30;;;;;;;;;;;20.80;55.30;;;;;;5031473;28;1335;-69
2021/12/24 14:36:59;;;;;;;;;;;20.80;55.30;;;;;;5030937;28;1387;-68
2021/12/24 14:39:25;;;;;;;;;;;20.80;55.30;;;;;;5032321;28;1339;-68
2021/12/24 14:42:09;;;;;;;;;;;20.80;55.30;;;;;;5031556;28;1061;-69
2021/12/24 14:44:34;;;;;;;;;;;20.80;55.30;;;;;;5031357;28;1328;-68
2021/12/24 14:47:00;;;;;;;;;;;20.70;55.30;;;;;;5030004;28;1953;-68
2021/12/24 14:49:32;;;;;;;;;;;20.70;55.30;;;;;;5032186;28;1119;-69
2021/12/24 14:52:13;;;;;;;;;;;20.70;55.30;;;;;;5035650;28;1252;-69
2021/12/24 14:54:57;;;;;;;;;;;20.70;55.30;;;;;;5035260;28;1312;-69
2021/12/24 14:57:24;;;;;;;;;;;20.70;55.40;;;;;;5035960;28;1271;-69
2021/12/24 14:59:49;;;;;;;;;;;20.70;55.40;;;;;;5036256;28;1225;-69
2021/12/24 15:02:15;;;;;;;;;;;20.70;55.40;;;;;;5031503;28;1526;-69
2021/12/24 15:04:40;;;;;;;;;;;20.70;55.40;;;;;;5022456;28;1531;-69
2021/12/24 15:07:06;;;;;;;;;;;20.70;55.40;;;;;;5015999;28;1894;-66
2021/12/24 15:09:32;;;;;;;;;;;20.70;55.50;;;;;;5038787;28;1330;-69
2021/12/24 15:11:57;;;;;;;;;;;20.70;55.50;;;;;;5034217;28;1377;-68
2021/12/24 15:14:27;;;;;;;;;;;20.70;55.50;;;;;;5031906;28;1347;-69
2021/12/24 15:16:53;;;;;;;;;;;20.60;55.50;;;;;;5033239;28;1259;-69
2021/12/24 15:19:19;;;;;;;;;;;20.60;55.50;;;;;;5034240;28;1620;-68
2021/12/24 15:21:45;;;;;;;;;;;20.60;55.50;;;;;;5020671;28;1589;-68
2021/12/24 15:24:12;;;;;;;;;;;20.60;55.50;;;;;;5035005;28;1667;-68
2021/12/24 15:26:37;;;;;;;;;;;20.60;55.60;;;;;;5033778;28;1971;-67
2021/12/24 15:29:03;;;;;;;;;;;20.60;55.60;;;;;;5035330;28;1619;-68
2021/12/24 15:31:30;;;;;;;;;;;20.60;55.60;;;;;;5033596;28;1442;-68
2021/12/24 15:33:56;;;;;;;;;;;20.60;55.70;;;;;;5034563;28;1665;-68
2021/12/24 15:36:21;;;;;;;;;;;20.60;55.70;;;;;;5034591;28;1830;-68
2021/12/24 15:38:47;;;;;;;;;;;20.60;55.70;;;;;;5034615;28;1567;-68
2021/12/24 15:41:12;;;;;;;;;;;20.60;55.70;;;;;;5033881;28;1493;-69
2021/12/24 15:43:38;;;;;;;;;;;20.50;55.70;;;;;;5034291;28;1278;-68
2021/12/24 15:46:04;;;;;;;;;;;20.50;55.70;;;;;;5033485;28;1930;-69
2021/12/24 15:48:29;;;;;;;;;;;20.50;55.70;;;;;;5035294;28;1585;-68
2021/12/24 15:50:55;;;;;;;;;;;20.50;55.80;;;;;;5034744;28;1558;-68
2021/12/24 15:53:20;;;;;;;;;;;20.50;55.80;;;;;;5033064;28;1611;-68
2021/12/24 15:55:45;;;;;;;;;;;20.50;55.80;;;;;;5033367;28;1580;-68
2021/12/24 15:58:12;;;;;;;;;;;20.50;55.80;;;;;;5034102;28;1638;-67
2021/12/24 16:00:38;;;;;;;;;;;20.50;55.80;;;;;;5016652;28;1620;-68
2021/12/24 16:03:04;;;;;;;;;;;20.50;55.90;;;;;;5032446;28;1320;-67
2021/12/24 16:05:29;;;;;;;;;;;20.50;55.90;;;;;;5034635;28;1883;-68
2021/12/24 16:07:55;;;;;;;;;;;20.40;55.90;;;;;;5034248;28;1780;-68